createdAt,value
2018-09-08T00:01:44.333Z,15.50
2018-09-08T00:04:12.477Z,15.50
2018-09-08T00:06:40.582Z,15.50
2018-09-08T00:09:09.477Z,15.50
2018-09-08T00:11:37.983Z,15.40
2018-09-08T00:14:06.182Z,15.30
2018-09-08T00:16:39.816Z,15.30
2018-09-08T00:19:13.283Z,15.30
2018-09-08T00:21:46.909Z,15.30
2018-09-08T00:24:20.560Z,15.20
2018-09-08T00:26:48.001Z,15.20
2018-09-08T00:29:23.551Z,15.10
2018-09-08T00:31:51.694Z,15.10
2018-09-08T00:34:19.868Z,15.00
2018-09-08T00:36:47.972Z,15.00
2018-09-08T00:39:16.144Z,15.00
2018-09-08T00:41:44.318Z,14.90
2018-09-08T00:44:12.434Z,14.80
2018-09-08T00:46:40.553Z,14.80
2018-09-08T00:49:08.725Z,14.80
2018-09-08T00:51:36.857Z,14.70
2018-09-08T00:54:04.996Z,14.70
2018-09-08T00:56:33.108Z,14.70
2018-09-08T00:59:04.308Z,14.60
2018-09-08T01:01:33.614Z,14.60
2018-09-08T01:04:01.732Z,14.70
2018-09-08T01:06:29.900Z,14.70
2018-09-08T01:08:58.033Z,14.70
2018-09-08T01:11:26.184Z,14.70
2018-09-08T01:13:54.352Z,14.70
2018-09-08T01:16:22.544Z,14.70
2018-09-08T01:18:50.695Z,14.70
2018-09-08T01:21:18.815Z,14.70
2018-09-08T01:23:51.939Z,14.80
2018-09-08T01:26:20.796Z,14.80
2018-09-08T01:28:49.705Z,14.80
2018-09-08T01:31:18.080Z,14.80
2018-09-08T01:33:46.224Z,14.80
2018-09-08T01:36:14.505Z,14.80
2018-09-08T01:38:42.641Z,14.80
2018-09-08T01:41:10.817Z,14.80
2018-09-08T01:43:38.950Z,14.80
2018-09-08T01:46:07.445Z,14.80
2018-09-08T01:48:41.920Z,14.80
2018-09-08T01:51:10.126Z,14.80
2018-09-08T01:53:38.283Z,14.70
2018-09-08T01:56:06.633Z,14.70
2018-09-08T01:58:34.775Z,14.70
2018-09-08T02:01:02.874Z,14.70
2018-09-08T02:03:31.005Z,14.60
2018-09-08T02:05:59.099Z,14.60
2018-09-08T02:08:27.212Z,14.60
2018-09-08T02:10:55.311Z,14.60
2018-09-08T02:13:23.449Z,14.50
2018-09-08T02:15:51.585Z,14.50
2018-09-08T02:18:19.785Z,14.40
2018-09-08T02:20:47.941Z,14.40
2018-09-08T02:23:16.068Z,14.40
2018-09-08T02:25:44.282Z,14.40
2018-09-08T02:28:12.371Z,14.40
2018-09-08T02:30:40.549Z,14.50
2018-09-08T02:33:08.635Z,14.50
2018-09-08T02:35:36.768Z,14.50
2018-09-08T02:38:04.946Z,14.50
2018-09-08T02:40:33.137Z,14.60
2018-09-08T02:43:01.267Z,14.50
2018-09-08T02:45:29.392Z,14.50
2018-09-08T02:47:57.579Z,14.40
2018-09-08T02:50:28.143Z,14.40
2018-09-08T02:52:55.412Z,14.40
2018-09-08T02:55:22.619Z,14.30
2018-09-08T02:57:49.881Z,14.30
2018-09-08T03:00:17.156Z,14.30
2018-09-08T03:02:44.379Z,14.30
2018-09-08T03:05:11.607Z,14.30
2018-09-08T03:07:38.850Z,14.30
2018-09-08T03:10:06.092Z,14.30
2018-09-08T03:12:33.359Z,14.20
2018-09-08T03:15:00.595Z,14.20
2018-09-08T03:17:27.915Z,14.20
2018-09-08T03:19:55.140Z,14.20
2018-09-08T03:22:22.718Z,14.20
2018-09-08T03:24:50.278Z,14.20
2018-09-08T03:27:17.749Z,14.10
2018-09-08T03:29:45.006Z,14.00
2018-09-08T03:32:12.456Z,14.00
2018-09-08T03:34:39.766Z,14.00
2018-09-08T03:37:07.021Z,13.80
2018-09-08T03:39:34.320Z,13.80
2018-09-08T03:42:01.591Z,13.70
2018-09-08T03:44:28.906Z,13.60
2018-09-08T03:46:56.119Z,13.60
2018-09-08T03:49:23.355Z,13.50
2018-09-08T03:51:51.115Z,13.50
2018-09-08T03:54:18.404Z,13.40
2018-09-08T03:56:45.672Z,13.30
2018-09-08T03:59:12.946Z,13.20
2018-09-08T04:01:40.225Z,13.20
2018-09-08T04:04:08.323Z,13.10
2018-09-08T04:06:36.439Z,13.10
2018-09-08T04:09:07.588Z,13.00
2018-09-08T04:11:35.728Z,13.10
2018-09-08T04:14:03.930Z,13.10
2018-09-08T04:16:32.105Z,13.00
2018-09-08T04:19:00.208Z,13.00
2018-09-08T04:21:28.428Z,12.90
2018-09-08T04:23:56.573Z,12.80
2018-09-08T04:26:24.708Z,12.70
2018-09-08T04:28:52.886Z,12.70
2018-09-08T04:31:21.016Z,12.70
2018-09-08T04:33:49.101Z,12.60
2018-09-08T04:36:17.253Z,12.60
2018-09-08T04:38:45.405Z,12.60
2018-09-08T04:41:13.545Z,12.60
2018-09-08T04:43:42.303Z,12.50
2018-09-08T04:46:10.401Z,12.50
2018-09-08T04:48:38.574Z,12.60
2018-09-08T04:51:06.859Z,12.50
2018-09-08T04:53:34.997Z,12.50
2018-09-08T04:56:03.192Z,12.50
2018-09-08T04:58:31.340Z,12.60
2018-09-08T05:00:59.534Z,12.60
2018-09-08T05:03:27.917Z,12.70
2018-09-08T05:05:56.120Z,12.70
2018-09-08T05:08:24.241Z,12.80
2018-09-08T05:10:52.389Z,12.90
2018-09-08T05:13:20.572Z,13.10
2018-09-08T05:15:48.708Z,13.20
2018-09-08T05:18:16.860Z,13.30
2018-09-08T05:20:45.008Z,13.50
2018-09-08T05:23:13.126Z,13.60
2018-09-08T05:25:41.243Z,13.80
2018-09-08T05:28:09.361Z,14.00
2018-09-08T05:30:37.488Z,14.10
2018-09-08T05:33:05.659Z,14.30
2018-09-08T05:35:33.833Z,14.40
2018-09-08T05:38:02.050Z,14.60
2018-09-08T05:40:30.205Z,14.60
2018-09-08T05:42:58.366Z,14.70
2018-09-08T05:45:26.528Z,14.80
2018-09-08T05:47:54.702Z,14.90
2018-09-08T05:50:22.854Z,15.10
2018-09-08T05:52:50.998Z,15.30
2018-09-08T05:55:19.151Z,15.50
2018-09-08T05:57:47.286Z,15.40
2018-09-08T06:00:15.520Z,15.50
2018-09-08T06:02:43.595Z,15.60
2018-09-08T06:05:11.820Z,15.70
2018-09-08T06:07:40.000Z,15.80
2018-09-08T06:10:08.227Z,15.90
2018-09-08T06:12:36.523Z,16.10
2018-09-08T06:15:04.680Z,16.40
2018-09-08T06:17:32.865Z,16.70
2018-09-08T06:20:01.008Z,16.90
2018-09-08T06:22:29.205Z,17.00
2018-09-08T06:24:57.386Z,16.90
2018-09-08T06:27:25.529Z,16.70
2018-09-08T06:29:53.694Z,16.60
2018-09-08T06:32:21.814Z,16.60
2018-09-08T06:34:49.939Z,16.70
2018-09-08T06:37:18.061Z,16.90
2018-09-08T06:39:46.205Z,17.10
2018-09-08T06:42:14.408Z,17.30
2018-09-08T06:44:42.689Z,17.60
2018-09-08T06:47:10.798Z,18.00
2018-09-08T06:49:38.913Z,18.60
2018-09-08T06:52:07.076Z,18.60
2018-09-08T06:54:35.212Z,19.40
2018-09-08T06:57:03.395Z,20.40
2018-09-08T06:59:31.561Z,21.00
2018-09-08T07:01:59.639Z,21.60
2018-09-08T07:04:27.744Z,22.10
2018-09-08T07:06:55.903Z,22.20
2018-09-08T07:09:24.130Z,22.20
2018-09-08T07:11:52.296Z,22.10
2018-09-08T07:14:20.441Z,22.50
2018-09-08T07:16:48.653Z,23.10
2018-09-08T07:19:16.852Z,22.80
2018-09-08T07:21:45.078Z,22.90
2018-09-08T07:24:13.188Z,23.30
2018-09-08T07:26:41.256Z,23.90
2018-09-08T07:29:09.481Z,23.50
2018-09-08T07:31:37.592Z,23.50
2018-09-08T07:34:05.687Z,24.10
2018-09-08T07:36:34.082Z,23.80
2018-09-08T07:39:02.262Z,23.90
2018-09-08T07:41:32.213Z,23.40
2018-09-08T07:44:00.343Z,22.40
2018-09-08T07:46:28.451Z,22.90
2018-09-08T07:48:57.307Z,23.10
2018-09-08T07:51:25.744Z,22.40
2018-09-08T07:53:53.967Z,22.00
2018-09-08T07:56:22.121Z,22.40
2018-09-08T07:58:50.536Z,23.40
2018-09-08T08:01:18.754Z,24.10
2018-09-08T08:03:47.019Z,23.90
2018-09-08T08:06:15.190Z,23.10
2018-09-08T08:08:43.418Z,23.10
2018-09-08T08:11:11.600Z,22.50
2018-09-08T08:13:39.871Z,23.00
2018-09-08T08:16:08.049Z,22.30
2018-09-08T08:18:36.205Z,22.10
2018-09-08T08:21:04.357Z,22.90
2018-09-08T08:23:32.557Z,23.60
2018-09-08T08:26:00.735Z,24.10
2018-09-08T08:28:29.100Z,23.40
2018-09-08T08:30:57.316Z,24.00
2018-09-08T08:33:25.445Z,25.10
2018-09-08T08:35:53.650Z,23.90
2018-09-08T08:38:21.882Z,23.90
2018-09-08T08:40:49.983Z,22.20
2018-09-08T08:43:18.208Z,22.50
2018-09-08T08:45:46.328Z,23.70
2018-09-08T08:48:14.584Z,24.20
2018-09-08T08:50:56.887Z,24.90
2018-09-08T08:53:36.642Z,25.90
2018-09-08T08:56:04.848Z,26.80
2018-09-08T08:58:32.962Z,26.70
2018-09-08T09:01:01.095Z,26.30
2018-09-08T09:03:29.229Z,26.80
2018-09-08T09:05:57.391Z,25.90
2018-09-08T09:08:25.906Z,26.30
2018-09-08T09:10:53.652Z,25.70
2018-09-08T09:13:21.845Z,26.20
2018-09-08T09:15:49.947Z,26.50
2018-09-08T09:18:30.157Z,26.80
2018-09-08T09:21:09.415Z,26.80
2018-09-08T09:24:53.724Z,26.50
2018-09-08T09:27:22.014Z,27.00
2018-09-08T09:29:50.153Z,24.70
2018-09-08T09:32:18.286Z,23.20
2018-09-08T09:34:46.425Z,23.10
2018-09-08T09:37:14.562Z,22.80
2018-09-08T09:39:42.765Z,23.00
2018-09-08T09:42:10.993Z,23.90
2018-09-08T09:44:39.162Z,24.70
2018-09-08T09:47:07.304Z,25.10
2018-09-08T09:49:35.461Z,24.10
2018-09-08T09:52:03.596Z,24.00
2018-09-08T09:54:31.704Z,24.80
2018-09-08T09:56:59.814Z,25.70
2018-09-08T09:59:27.911Z,24.50
2018-09-08T10:02:01.541Z,24.00
2018-09-08T10:04:29.627Z,23.70
2018-09-08T10:06:57.749Z,24.00
2018-09-08T10:09:25.835Z,24.80
2018-09-08T10:11:53.944Z,25.10
2018-09-08T10:14:22.092Z,25.50
2018-09-08T10:16:50.217Z,25.60
2018-09-08T10:19:18.335Z,25.80
2018-09-08T10:21:46.529Z,26.50
2018-09-08T10:24:14.692Z,26.60
2018-09-08T10:26:42.840Z,26.80
2018-09-08T10:29:10.923Z,25.90
2018-09-08T10:31:39.071Z,25.30
2018-09-08T10:34:07.256Z,25.50
2018-09-08T10:36:35.392Z,25.60
2018-09-08T10:39:03.515Z,25.30
2018-09-08T10:41:31.880Z,25.10
2018-09-08T10:44:00.199Z,24.50
2018-09-08T10:46:28.295Z,24.50
2018-09-08T10:48:56.405Z,24.30
2018-09-08T10:52:30.298Z,24.50
2018-09-08T10:54:58.422Z,24.40
2018-09-08T10:57:26.538Z,23.90
2018-09-08T10:59:54.633Z,23.00
2018-09-08T11:02:23.151Z,22.30
2018-09-08T11:04:51.049Z,22.30
2018-09-08T11:07:19.279Z,22.20
2018-09-08T11:09:47.382Z,22.10
2018-09-08T11:12:15.455Z,22.20
2018-09-08T11:14:43.625Z,22.40
2018-09-08T11:17:11.799Z,22.30
2018-09-08T11:19:42.286Z,22.20
2018-09-08T11:22:10.437Z,22.20
2018-09-08T11:24:38.620Z,22.00
2018-09-08T11:27:06.743Z,21.70
2018-09-08T11:29:35.033Z,21.30
2018-09-08T11:32:03.137Z,21.30
2018-09-08T11:34:31.596Z,21.40
2018-09-08T11:36:59.713Z,21.40
2018-09-08T11:39:27.972Z,21.30
2018-09-08T11:41:56.181Z,21.40
2018-09-08T11:44:26.301Z,21.70
2018-09-08T11:46:54.480Z,21.60
2018-09-08T11:49:22.585Z,21.50
2018-09-08T11:51:50.700Z,21.50
2018-09-08T11:54:18.862Z,21.50
2018-09-08T11:56:46.989Z,21.50
2018-09-08T11:59:15.093Z,21.70
2018-09-08T12:01:43.220Z,21.70
2018-09-08T12:04:11.299Z,21.70
2018-09-08T12:06:39.415Z,21.70
2018-09-08T12:09:08.605Z,21.50
2018-09-08T12:11:36.850Z,21.60
2018-09-08T12:14:04.915Z,21.50
2018-09-08T12:16:33.053Z,21.50
2018-09-08T12:19:01.277Z,21.50
2018-09-08T12:21:29.353Z,21.60
2018-09-08T12:23:57.443Z,21.50
2018-09-08T12:26:25.592Z,21.30
2018-09-08T12:28:53.648Z,21.20
2018-09-08T12:31:21.792Z,21.10
2018-09-08T12:33:49.948Z,21.10
2018-09-08T12:36:18.096Z,21.30
2018-09-08T12:38:46.207Z,21.50
2018-09-08T12:41:14.410Z,21.60
2018-09-08T12:43:42.516Z,21.60
2018-09-08T12:46:10.675Z,21.70
2018-09-08T12:48:38.845Z,21.80
2018-09-08T12:51:07.093Z,21.80
2018-09-08T12:53:35.245Z,21.60
2018-09-08T12:56:03.425Z,21.60
2018-09-08T12:58:31.557Z,21.50
2018-09-08T13:01:00.232Z,21.70
2018-09-08T13:03:28.367Z,22.40
2018-09-08T13:05:56.447Z,23.60
2018-09-08T13:08:24.569Z,24.50
2018-09-08T13:10:52.728Z,25.40
2018-09-08T13:13:21.000Z,26.10
2018-09-08T13:15:49.161Z,26.40
2018-09-08T13:18:17.404Z,27.00
2018-09-08T13:20:45.545Z,27.70
2018-09-08T13:23:13.978Z,28.00
2018-09-08T13:25:42.133Z,27.20
2018-09-08T13:28:10.282Z,27.20
2018-09-08T13:30:39.401Z,27.20
2018-09-08T13:33:07.624Z,27.50
2018-09-08T13:35:35.856Z,27.80
2018-09-08T13:38:04.085Z,28.20
2018-09-08T13:40:32.215Z,28.70
2018-09-08T13:43:01.260Z,28.90
2018-09-08T13:45:29.372Z,28.80
2018-09-08T13:47:57.501Z,28.40
2018-09-08T13:50:26.367Z,28.40
2018-09-08T13:52:56.851Z,28.80
2018-09-08T13:55:27.396Z,28.20
2018-09-08T13:57:55.955Z,28.10
2018-09-08T14:00:24.238Z,28.00
2018-09-08T14:02:52.545Z,27.90
2018-09-08T14:05:20.930Z,27.20
2018-09-08T14:07:51.424Z,26.60
2018-09-08T14:10:19.511Z,26.00
2018-09-08T14:12:47.916Z,25.60
2018-09-08T14:15:16.120Z,25.20
2018-09-08T14:17:44.320Z,24.80
2018-09-08T14:20:12.485Z,24.30
2018-09-08T14:22:40.632Z,24.00
2018-09-08T14:25:08.730Z,24.10
2018-09-08T14:27:36.826Z,24.00
2018-09-08T14:30:05.994Z,24.10
2018-09-08T14:32:34.086Z,23.70
2018-09-08T14:35:02.196Z,23.40
2018-09-08T14:37:30.267Z,23.30
2018-09-08T14:39:58.681Z,23.10
2018-09-08T14:42:26.755Z,23.10
2018-09-08T14:44:54.870Z,23.00
2018-09-08T14:47:23.371Z,23.00
2018-09-08T14:49:51.756Z,22.80
2018-09-08T14:52:26.345Z,22.50
2018-09-08T14:54:54.487Z,22.40
2018-09-08T14:57:22.737Z,22.40
2018-09-08T14:59:50.938Z,22.50
2018-09-08T15:02:21.476Z,22.50
2018-09-08T15:04:49.640Z,22.50
2018-09-08T15:07:17.744Z,22.60
2018-09-08T15:09:45.865Z,22.70
2018-09-08T15:12:13.938Z,22.50
2018-09-08T15:14:42.095Z,22.40
2018-09-08T15:17:10.201Z,22.30
2018-09-08T15:19:38.402Z,22.30
2018-09-08T15:22:06.600Z,22.20
2018-09-08T15:24:34.742Z,22.20
2018-09-08T15:27:02.843Z,22.10
2018-09-08T15:29:30.973Z,22.00
2018-09-08T15:31:59.494Z,22.00
2018-09-08T15:34:27.709Z,21.90
2018-09-08T15:37:03.616Z,21.80
2018-09-08T15:39:31.769Z,21.70
2018-09-08T15:42:00.794Z,21.70
2018-09-08T15:44:30.885Z,21.70
2018-09-08T15:46:58.953Z,21.50
2018-09-08T15:49:27.574Z,21.30
2018-09-08T15:51:55.738Z,21.30
2018-09-08T15:54:24.811Z,21.30
2018-09-08T15:56:53.208Z,21.20
2018-09-08T15:59:21.504Z,21.20
2018-09-08T16:01:49.665Z,21.10
2018-09-08T16:04:17.816Z,21.00
2018-09-08T16:06:45.883Z,20.90
2018-09-08T16:09:16.869Z,20.90
2018-09-08T16:11:45.476Z,20.80
2018-09-08T16:14:15.754Z,20.70
2018-09-08T16:16:45.871Z,20.70
2018-09-08T16:19:14.562Z,20.70
2018-09-08T16:21:42.806Z,20.60
2018-09-08T16:24:11.069Z,20.40
2018-09-08T16:26:39.471Z,20.50
2018-09-08T16:29:07.720Z,20.40
2018-09-08T16:31:35.847Z,20.40
2018-09-08T16:34:05.336Z,20.30
2018-09-08T16:36:35.485Z,20.20
2018-09-08T16:39:04.707Z,20.30
2018-09-08T16:41:33.028Z,20.30
2018-09-08T16:44:01.161Z,20.30
2018-09-08T16:46:29.285Z,20.20
2018-09-08T16:48:57.501Z,20.10
2018-09-08T16:51:25.599Z,19.90
2018-09-08T16:53:53.698Z,19.80
2018-09-08T16:56:23.107Z,19.70
2018-09-08T16:58:51.285Z,19.60
2018-09-08T17:01:19.433Z,19.50
2018-09-08T17:03:47.676Z,19.40
2018-09-08T17:06:15.801Z,19.30
2018-09-08T17:08:43.979Z,19.20
2018-09-08T17:11:12.802Z,19.10
2018-09-08T17:13:40.984Z,19.00
2018-09-08T17:16:09.092Z,18.90
2018-09-08T17:18:37.225Z,18.80
2018-09-08T17:21:05.409Z,18.60
2018-09-08T17:23:33.547Z,18.50
2018-09-08T17:26:01.676Z,18.40
2018-09-08T17:28:29.773Z,18.30
2018-09-08T17:30:57.918Z,18.20
2018-09-08T17:33:26.062Z,18.10
2018-09-08T17:35:54.242Z,18.00
2018-09-08T17:38:29.225Z,17.80
2018-09-08T17:40:57.817Z,17.80
2018-09-08T17:43:25.979Z,17.60
2018-09-08T17:45:54.120Z,17.40
2018-09-08T17:48:22.347Z,17.40
2018-09-08T17:50:50.545Z,17.30
2018-09-08T17:53:18.689Z,17.20
2018-09-08T17:55:46.807Z,17.10
2018-09-08T17:58:15.233Z,17.00
2018-09-08T18:00:43.401Z,16.90
2018-09-08T18:03:11.612Z,16.80
2018-09-08T18:05:39.750Z,16.70
2018-09-08T18:08:07.948Z,16.60
2018-09-08T18:10:36.223Z,16.50
2018-09-08T18:13:04.618Z,16.50
2018-09-08T18:15:32.761Z,16.40
2018-09-08T18:18:00.856Z,16.30
2018-09-08T18:20:29.051Z,16.30
2018-09-08T18:22:57.215Z,16.20
2018-09-08T18:25:25.429Z,16.20
2018-09-08T18:27:53.640Z,16.10
2018-09-08T18:30:22.070Z,16.10
2018-09-08T18:32:50.355Z,16.10
2018-09-08T18:35:18.617Z,16.10
2018-09-08T18:37:47.511Z,16.10
2018-09-08T18:40:15.641Z,15.90
2018-09-08T18:42:43.769Z,15.90
2018-09-08T18:45:11.978Z,15.80
2018-09-08T18:47:40.174Z,15.80
2018-09-08T18:50:08.480Z,15.70
2018-09-08T18:52:36.716Z,15.70
2018-09-08T18:55:05.031Z,15.60
2018-09-08T18:57:33.333Z,15.60
2018-09-08T19:00:01.541Z,15.50
2018-09-08T19:02:29.712Z,15.50
2018-09-08T19:04:57.863Z,15.50
2018-09-08T19:07:26.079Z,15.50
2018-09-08T19:09:59.766Z,15.50
2018-09-08T19:12:27.934Z,15.50
2018-09-08T19:15:01.794Z,15.40
2018-09-08T19:17:29.949Z,15.30
2018-09-08T19:20:03.697Z,15.20
2018-09-08T19:22:31.786Z,15.20
2018-09-08T19:24:59.899Z,15.10
2018-09-08T19:27:28.045Z,15.00
2018-09-08T19:30:00.501Z,15.00
2018-09-08T19:32:29.001Z,14.90
2018-09-08T19:35:02.656Z,14.80
2018-09-08T19:37:33.513Z,14.80
2018-09-08T19:40:01.729Z,14.70
2018-09-08T19:42:30.790Z,14.70
2018-09-08T19:44:59.067Z,14.70
2018-09-08T19:48:34.129Z,14.60
2018-09-08T19:51:02.304Z,14.50
2018-09-08T19:53:35.883Z,14.40
2018-09-08T19:56:04.180Z,14.30
2018-09-08T19:58:37.839Z,14.20
2018-09-08T20:01:06.007Z,14.20
2018-09-08T20:03:34.135Z,14.20
2018-09-08T20:06:02.350Z,14.20
2018-09-08T20:08:30.700Z,14.10
2018-09-08T20:10:58.854Z,14.10
2018-09-08T20:13:27.123Z,14.00
2018-09-08T20:15:55.425Z,14.00
2018-09-08T20:18:23.632Z,14.00
2018-09-08T20:20:51.921Z,13.90
2018-09-08T20:23:20.292Z,13.90
2018-09-08T20:25:48.535Z,13.90
2018-09-08T20:28:16.950Z,13.80
2018-09-08T20:30:45.450Z,13.80
2018-09-08T20:33:13.680Z,13.80
2018-09-08T20:35:42.088Z,13.70
2018-09-08T20:38:10.324Z,13.70
2018-09-08T20:40:38.850Z,13.60
2018-09-08T20:43:07.012Z,13.60
2018-09-08T20:45:35.157Z,13.60
2018-09-08T20:48:03.345Z,13.60
2018-09-08T20:50:31.533Z,13.60
2018-09-08T20:52:59.894Z,13.60
2018-09-08T20:55:28.083Z,13.50
2018-09-08T20:57:56.259Z,13.50
2018-09-08T21:00:24.516Z,13.50
2018-09-08T21:02:52.822Z,13.40
2018-09-08T21:05:20.962Z,13.40
2018-09-08T21:07:49.338Z,13.30
2018-09-08T21:10:17.572Z,13.30
2018-09-08T21:12:45.900Z,13.30
2018-09-08T21:15:14.141Z,13.30
2018-09-08T21:17:42.280Z,13.30
2018-09-08T21:20:10.377Z,13.30
2018-09-08T21:22:38.545Z,13.30
2018-09-08T21:25:06.953Z,13.30
2018-09-08T21:27:35.201Z,13.20
2018-09-08T21:30:03.418Z,13.20
2018-09-08T21:32:31.559Z,13.20
2018-09-08T21:34:59.762Z,13.20
2018-09-08T21:37:28.183Z,13.20
2018-09-08T21:39:56.334Z,13.20
2018-09-08T21:42:24.577Z,13.20
2018-09-08T21:44:52.785Z,13.20
2018-09-08T21:47:20.896Z,13.10
2018-09-08T21:49:49.177Z,13.10
2018-09-08T21:52:17.297Z,13.00
2018-09-08T21:54:45.469Z,13.00
2018-09-08T21:57:13.610Z,13.10
2018-09-08T21:59:41.814Z,13.10
2018-09-08T22:02:09.983Z,13.10
2018-09-08T22:04:38.091Z,13.10
2018-09-08T22:07:06.266Z,13.10
2018-09-08T22:09:34.448Z,13.10
2018-09-08T22:12:02.700Z,13.10
2018-09-08T22:14:30.896Z,13.10
2018-09-08T22:16:59.034Z,13.20
2018-09-08T22:19:27.170Z,13.20
2018-09-08T22:21:55.312Z,13.10
2018-09-08T22:24:23.425Z,13.00
2018-09-08T22:26:51.629Z,13.10
2018-09-08T22:29:19.782Z,13.00
2018-09-08T22:31:47.976Z,13.00
2018-09-08T22:34:16.104Z,12.90
2018-09-08T22:36:44.260Z,12.90
2018-09-08T22:39:12.375Z,12.80
2018-09-08T22:41:40.560Z,12.80
2018-09-08T22:44:08.741Z,12.70
2018-09-08T22:46:36.899Z,12.60
2018-09-08T22:49:05.240Z,12.50
2018-09-08T22:51:33.535Z,12.50
2018-09-08T22:54:01.644Z,12.40
2018-09-08T22:56:29.785Z,12.30
2018-09-08T22:58:57.951Z,12.30
2018-09-08T23:01:26.101Z,12.20
2018-09-08T23:03:54.234Z,12.20
2018-09-08T23:06:22.400Z,12.20
2018-09-08T23:08:50.557Z,12.20
2018-09-08T23:11:18.675Z,12.20
2018-09-08T23:13:46.864Z,12.20
2018-09-08T23:16:15.004Z,12.10
2018-09-08T23:18:43.088Z,12.10
2018-09-08T23:21:11.176Z,12.10
2018-09-08T23:23:39.358Z,12.10
2018-09-08T23:26:07.681Z,12.10
2018-09-08T23:28:35.815Z,12.10
2018-09-08T23:31:03.928Z,12.10
2018-09-08T23:33:32.089Z,12.10
2018-09-08T23:36:00.184Z,12.00
2018-09-08T23:38:28.300Z,11.90
2018-09-08T23:40:56.484Z,11.90
2018-09-08T23:43:24.663Z,11.80
2018-09-08T23:45:52.812Z,11.80
2018-09-08T23:48:20.930Z,11.80
2018-09-08T23:50:49.070Z,11.80
2018-09-08T23:53:17.224Z,11.80
2018-09-08T23:55:45.361Z,11.70
2018-09-08T23:58:13.492Z,11.60
